Weather at Hardin County Airport

Public forecast

Using degrees Fahrenheit for public forecast. Weather courtesy of forecast.io.

Closest aviation weather report (METAR) to Hardin County Airport

Closest report is Bellefontaine Regional Airport, 16.4 nm (30.4 km) SSW. Retrieved 2021/01/25 03:35 UTC (5 minutes ago):

KEDJ 250335Z AUTO 00000KT 3/4SM OVC001 M03/M03 A3006 RMK AO1

Closest aviation forecast (TAF) to Hardin County Airport

Closest forecast is Findlay Airport, 24.2 nm (44.8 km) N. Retrieved 2021-01-25 00:00 UTC (4 hours ago):

TAF COR KFDY 242357Z 2500/2524 15005KT P6SM VCSH OVC012 TEMPO 2500/2502 2SM -SN BR OVC008 FM250200 VRB03KT P6SM OVC008 FM250900 05006KT P6SM OVC015 FM251700 06007KT P6SM OVC020 FM252200 07012KT 5SM -SN OVC018